createdAt,value
2023-02-07T07:58:56.978Z,2.60
2023-02-07T08:01:23.873Z,2.10
2023-02-07T08:03:50.707Z,1.90
2023-02-07T08:06:17.568Z,2.00
2023-02-07T08:08:44.372Z,1.80
2023-02-07T08:11:11.165Z,1.30
2023-02-07T08:13:38.138Z,1.40
2023-02-07T08:16:08.642Z,1.20
2023-02-07T08:18:35.555Z,1.60
2023-02-07T08:21:02.458Z,1.60
2023-02-07T08:23:29.419Z,2.50
2023-02-07T08:25:56.267Z,1.80
2023-02-07T08:28:23.270Z,1.90
2023-02-07T08:30:50.121Z,3.30
2023-02-07T08:33:17.179Z,4.20
2023-02-07T08:35:44.324Z,4.20
2023-02-07T08:38:11.263Z,3.10
2023-02-07T08:40:38.563Z,4.60
2023-02-07T08:43:07.249Z,6.30
2023-02-07T08:45:34.154Z,7.00
2023-02-07T08:48:01.012Z,6.60
2023-02-07T08:50:27.860Z,6.00
2023-02-07T08:52:54.619Z,5.50
2023-02-07T08:55:21.479Z,3.90
2023-02-07T08:57:48.271Z,4.10
2023-02-07T09:00:15.591Z,4.20
2023-02-07T09:02:43.762Z,3.90
2023-02-07T09:05:11.274Z,3.90
2023-02-07T09:07:38.254Z,3.90
2023-02-07T09:10:06.750Z,3.50
2023-02-07T09:12:34.179Z,3.50
2023-02-07T09:15:01.037Z,3.60
2023-02-07T09:17:27.831Z,3.80
2023-02-07T09:19:54.658Z,4.50
2023-02-07T09:22:21.477Z,4.30
2023-02-07T09:24:48.277Z,4.20
2023-02-07T09:27:15.130Z,4.40
2023-02-07T09:29:42.395Z,4.90
2023-02-07T09:32:09.181Z,4.90
2023-02-07T09:34:36.008Z,5.70
2023-02-07T09:37:02.754Z,5.60
2023-02-07T09:39:29.666Z,5.20
2023-02-07T09:42:05.797Z,4.80
2023-02-07T09:44:44.682Z,4.90
2023-02-07T09:47:19.045Z,4.50
2023-02-07T09:49:58.795Z,4.20
2023-02-07T09:52:31.212Z,4.50
2023-02-07T09:54:58.373Z,4.20
2023-02-07T09:57:37.956Z,3.70
2023-02-07T10:00:16.105Z,3.70
2023-02-07T10:02:46.972Z,3.60
2023-02-07T10:05:38.449Z,3.50
2023-02-07T10:08:05.516Z,3.40
2023-02-07T10:11:00.703Z,3.30
2023-02-07T10:13:38.834Z,3.20
2023-02-07T10:16:30.340Z,3.60
2023-02-07T10:19:11.932Z,4.40
2023-02-07T10:21:54.511Z,5.30
2023-02-07T10:24:59.742Z,6.50
2023-02-07T10:27:51.960Z,6.30
2023-02-07T10:30:34.125Z,6.10
2023-02-07T10:33:05.107Z,6.00
2023-02-07T10:35:37.219Z,5.50
2023-02-07T10:38:04.285Z,5.50
2023-02-07T10:40:33.887Z,4.60
2023-02-07T10:43:04.840Z,4.20
2023-02-07T10:45:31.786Z,4.70
2023-02-07T10:47:58.679Z,5.70
2023-02-07T10:50:30.172Z,4.90
2023-02-07T10:52:57.831Z,4.70
2023-02-07T10:55:46.505Z,4.40
2023-02-07T10:58:23.118Z,4.00
2023-02-07T11:00:52.330Z,4.40
2023-02-07T11:03:22.617Z,4.70
2023-02-07T11:05:54.390Z,5.40
2023-02-07T11:08:28.622Z,4.40
2023-02-07T11:10:57.450Z,3.90
2023-02-07T11:13:29.193Z,3.80
2023-02-07T11:16:00.446Z,3.90
2023-02-07T11:18:45.610Z,3.90
2023-02-07T11:21:25.249Z,4.30
2023-02-07T11:23:52.504Z,4.50
2023-02-07T11:26:20.403Z,4.70
2023-02-07T11:28:47.361Z,4.40
2023-02-07T11:31:15.942Z,4.10
2023-02-07T11:33:42.905Z,4.10
2023-02-07T11:36:30.563Z,4.60
2023-02-07T11:38:58.951Z,4.70
2023-02-07T11:41:32.874Z,5.00
2023-02-07T11:44:06.682Z,5.20
2023-02-07T11:46:38.507Z,5.90
2023-02-07T11:49:09.173Z,5.90
2023-02-07T11:51:35.959Z,5.80
2023-02-07T11:54:03.992Z,6.30
2023-02-07T11:56:42.062Z,5.60
2023-02-07T11:59:22.666Z,4.90
2023-02-07T12:01:54.173Z,5.50
2023-02-07T12:04:25.170Z,6.70
2023-02-07T12:07:06.148Z,6.80
2023-02-07T12:09:47.119Z,6.30
2023-02-07T12:13:07.150Z,7.20
2023-02-07T12:15:42.886Z,8.30
2023-02-07T12:18:24.960Z,9.10
2023-02-07T12:21:18.644Z,8.50
2023-02-07T12:23:59.661Z,10.70
2023-02-07T12:26:27.603Z,9.90
2023-02-07T12:29:31.653Z,10.60
2023-02-07T12:32:10.262Z,10.90
2023-02-07T12:34:50.623Z,12.60
2023-02-07T12:37:55.867Z,12.00
2023-02-07T12:40:43.047Z,12.00
2023-02-07T12:43:15.085Z,11.00
2023-02-07T12:45:58.752Z,10.00
2023-02-07T12:48:32.231Z,10.80
2023-02-07T12:51:22.733Z,11.20
2023-02-07T12:54:21.355Z,9.70
2023-02-07T12:57:09.339Z,8.40
2023-02-07T12:59:44.207Z,9.00
2023-02-07T13:02:19.341Z,9.90
2023-02-07T13:05:07.461Z,10.00
2023-02-07T13:07:49.127Z,7.80
2023-02-07T13:10:54.246Z,7.20
2023-02-07T13:13:36.381Z,8.70
2023-02-07T13:16:06.028Z,9.60
2023-02-07T13:18:35.882Z,10.00
2023-02-07T13:21:13.396Z,10.10
2023-02-07T13:23:42.478Z,10.50
2023-02-07T13:26:20.421Z,10.50
2023-02-07T13:28:49.447Z,10.10
2023-02-07T13:31:22.447Z,8.20
2023-02-07T13:33:50.190Z,9.10
2023-02-07T13:36:44.304Z,9.10
2023-02-07T13:39:43.985Z,7.40
2023-02-07T13:42:26.239Z,7.50
2023-02-07T13:45:14.500Z,7.70
2023-02-07T13:48:09.553Z,7.30
2023-02-07T13:50:38.995Z,6.70
2023-02-07T13:53:05.937Z,6.80
2023-02-07T13:55:41.240Z,6.80
2023-02-07T13:59:08.789Z,5.90
2023-02-07T14:01:36.912Z,4.80
2023-02-07T14:04:06.196Z,5.50
2023-02-07T14:06:43.112Z,5.30
2023-02-07T14:09:22.131Z,5.10
2023-02-07T14:11:49.739Z,5.00
2023-02-07T14:14:24.872Z,5.20
2023-02-07T14:17:02.784Z,5.30
2023-02-07T14:19:42.739Z,5.70
2023-02-07T14:22:42.983Z,5.70
2023-02-07T14:25:09.873Z,5.80
2023-02-07T14:27:43.889Z,5.10
2023-02-07T14:30:27.801Z,5.00
2023-02-07T14:33:12.856Z,5.00
2023-02-07T14:36:05.067Z,4.30
2023-02-07T14:38:39.166Z,4.80
2023-02-07T14:41:13.874Z,4.80
2023-02-07T14:44:08.060Z,5.10
2023-02-07T14:46:38.257Z,5.20
2023-02-07T14:49:15.954Z,4.70
2023-02-07T14:51:47.980Z,4.60
2023-02-07T14:54:19.396Z,4.50
2023-02-07T14:57:01.304Z,4.30
2023-02-07T15:00:00.340Z,4.40
2023-02-07T15:02:27.158Z,4.30
2023-02-07T15:04:54.023Z,4.00
2023-02-07T15:07:20.881Z,4.20
2023-02-07T15:09:47.638Z,4.00
2023-02-07T15:12:27.007Z,4.00
2023-02-07T15:14:54.883Z,4.10
2023-02-07T15:17:22.394Z,4.20
2023-02-07T15:19:49.260Z,4.20
2023-02-07T15:22:25.894Z,4.10
2023-02-07T15:24:55.121Z,4.00
2023-02-07T15:27:27.270Z,3.80
2023-02-07T15:30:01.589Z,3.80
2023-02-07T15:32:34.529Z,3.80
2023-02-07T15:35:19.523Z,3.50
2023-02-07T15:37:47.363Z,3.40
2023-02-07T15:40:19.814Z,3.40
2023-02-07T15:42:59.532Z,3.50
2023-02-07T15:45:31.228Z,3.40
2023-02-07T15:48:04.001Z,3.20
2023-02-07T15:50:30.798Z,3.10
2023-02-07T15:52:59.536Z,2.90
2023-02-07T15:55:34.571Z,2.70
2023-02-07T15:58:02.727Z,2.90
2023-02-07T16:00:38.200Z,2.80
2023-02-07T16:03:07.488Z,2.70
2023-02-07T16:05:38.342Z,2.70
2023-02-07T16:08:46.459Z,2.60
2023-02-07T16:11:27.723Z,2.40
2023-02-07T16:14:21.790Z,2.50
2023-02-07T16:16:53.848Z,2.40
2023-02-07T16:19:28.152Z,2.60
2023-02-07T16:22:22.098Z,2.50
2023-02-07T16:24:49.950Z,2.30
2023-02-07T16:27:24.501Z,2.30
2023-02-07T16:29:51.428Z,2.30
2023-02-07T16:32:18.418Z,2.10
2023-02-07T16:34:58.829Z,2.30
2023-02-07T16:37:27.467Z,2.30
2023-02-07T16:39:54.282Z,2.30
2023-02-07T16:42:21.420Z,2.20
2023-02-07T16:44:48.584Z,2.40
2023-02-07T16:47:15.778Z,2.10
2023-02-07T16:49:44.033Z,2.30
2023-02-07T16:52:11.085Z,2.30
2023-02-07T16:54:37.912Z,2.10
2023-02-07T16:57:04.741Z,2.10
2023-02-07T16:59:31.595Z,2.10
2023-02-07T17:01:58.418Z,2.10
2023-02-07T17:04:25.469Z,1.90
2023-02-07T17:06:52.316Z,1.80
2023-02-07T17:09:21.400Z,1.80
2023-02-07T17:11:48.348Z,1.70
2023-02-07T17:14:15.216Z,1.80
2023-02-07T17:16:42.160Z,1.70
2023-02-07T17:19:12.410Z,1.80
2023-02-07T17:21:39.293Z,1.70
2023-02-07T17:24:06.433Z,1.70
2023-02-07T17:26:33.903Z,1.80
2023-02-07T17:29:00.842Z,1.60
2023-02-07T17:31:32.336Z,1.50
2023-02-07T17:33:59.523Z,1.50
2023-02-07T17:36:29.420Z,1.60
2023-02-07T17:38:58.982Z,1.40
2023-02-07T17:41:25.937Z,1.40
2023-02-07T17:43:53.255Z,1.40
2023-02-07T17:46:23.685Z,1.30
2023-02-07T17:48:51.085Z,1.30
2023-02-07T17:51:22.691Z,1.50
2023-02-07T17:53:50.071Z,1.40
2023-02-07T17:56:23.993Z,1.20
2023-02-07T17:58:51.582Z,1.30
2023-02-07T18:01:19.330Z,1.30
2023-02-07T18:03:50.584Z,1.50
2023-02-07T18:06:18.435Z,1.40
2023-02-07T18:08:45.562Z,1.30
2023-02-07T18:11:14.312Z,1.10
2023-02-07T18:13:41.663Z,1.20
2023-02-07T18:16:08.523Z,0.90
2023-02-07T18:18:35.697Z,1.00
2023-02-07T18:21:03.713Z,1.10
2023-02-07T18:23:30.828Z,0.90
2023-02-07T18:25:57.723Z,0.80
2023-02-07T18:28:24.590Z,0.90
2023-02-07T18:30:52.039Z,0.80
2023-02-07T18:33:20.124Z,0.90
2023-02-07T18:35:49.884Z,1.00
2023-02-07T18:38:16.889Z,1.00
2023-02-07T18:40:43.806Z,1.00
2023-02-07T18:43:10.575Z,0.90
2023-02-07T18:45:41.980Z,0.70
2023-02-07T18:48:09.360Z,0.70
2023-02-07T18:50:36.282Z,0.60
2023-02-07T18:53:04.771Z,0.50
2023-02-07T18:55:31.650Z,0.30
2023-02-07T18:57:58.531Z,-0.10
2023-02-07T19:00:25.460Z,0.20
2023-02-07T19:02:52.350Z,0.60
2023-02-07T19:05:20.619Z,-0.10
2023-02-07T19:07:47.501Z,-0.30
2023-02-07T19:10:16.559Z,-0.10
2023-02-07T19:12:43.416Z,0.20
2023-02-07T19:15:10.405Z,0.30
2023-02-07T19:17:37.248Z,0.30
2023-02-07T19:20:04.161Z,0.30
2023-02-07T19:22:35.901Z,0.50
2023-02-07T19:25:04.314Z,0.50
2023-02-07T19:27:31.260Z,0.60
2023-02-07T19:29:58.091Z,0.50
2023-02-07T19:32:24.940Z,0.40
2023-02-07T19:34:51.826Z,0.40
2023-02-07T19:37:18.931Z,0.10
2023-02-07T19:39:46.325Z,0.20
2023-02-07T19:42:13.297Z,0.30
2023-02-07T19:44:40.117Z,0.40
2023-02-07T19:47:06.959Z,0.20
2023-02-07T19:49:35.024Z,0.30
2023-02-07T19:52:01.921Z,0.40
2023-02-07T19:54:28.681Z,0.40
2023-02-07T19:56:55.544Z,0.30
2023-02-07T19:59:22.338Z,0.30
2023-02-07T20:01:49.324Z,0.30
2023-02-07T20:04:16.266Z,0.30
2023-02-07T20:06:43.092Z,0.30
2023-02-07T20:09:09.964Z,0.40
2023-02-07T20:11:36.984Z,0.30
2023-02-07T20:14:04.188Z,0.20
2023-02-07T20:16:33.274Z,0.30
2023-02-07T20:19:00.608Z,0.20
2023-02-07T20:21:28.545Z,0.10
2023-02-07T20:23:55.909Z,0.10
2023-02-07T20:26:28.630Z,0.10
2023-02-07T20:29:01.894Z,-0.10
2023-02-07T20:31:29.377Z,0.10
2023-02-07T20:33:57.592Z,0.00
2023-02-07T20:36:24.917Z,0.00
2023-02-07T20:38:51.808Z,0.10
2023-02-07T20:41:29.882Z,0.00
2023-02-07T20:44:04.313Z,0.20
2023-02-07T20:46:32.221Z,-0.10
2023-02-07T20:49:00.633Z,-0.30
2023-02-07T20:51:28.063Z,-0.60
2023-02-07T20:53:58.779Z,-0.30
2023-02-07T20:56:26.121Z,-0.30
2023-02-07T20:58:54.236Z,0.00
2023-02-07T21:01:25.794Z,-0.10
2023-02-07T21:03:53.875Z,-0.30
2023-02-07T21:06:22.854Z,-0.10
2023-02-07T21:08:53.297Z,0.00
2023-02-07T21:11:20.598Z,-0.10
2023-02-07T21:13:53.667Z,0.00
2023-02-07T21:16:21.048Z,0.20
2023-02-07T21:18:48.154Z,0.00
2023-02-07T21:21:15.537Z,0.00
2023-02-07T21:23:42.637Z,0.20
2023-02-07T21:26:11.977Z,0.20
2023-02-07T21:28:38.846Z,0.30
2023-02-07T21:31:07.580Z,0.20
2023-02-07T21:33:34.726Z,0.10
2023-02-07T21:36:09.708Z,0.00
2023-02-07T21:38:37.306Z,-0.10
2023-02-07T21:41:08.379Z,0.00
2023-02-07T21:43:35.660Z,0.10
2023-02-07T21:46:09.236Z,0.10
2023-02-07T21:48:36.438Z,0.10
2023-02-07T21:51:10.424Z,0.00
2023-02-07T21:53:40.025Z,-0.10
2023-02-07T21:56:08.514Z,-0.10
2023-02-07T21:58:35.369Z,-0.10
2023-02-07T22:01:16.377Z,-0.20
2023-02-07T22:03:45.234Z,-0.20
2023-02-07T22:06:12.510Z,-0.10
2023-02-07T22:08:39.555Z,0.00
2023-02-07T22:11:08.359Z,-0.20
2023-02-07T22:13:35.826Z,-0.10
2023-02-07T22:16:02.807Z,-0.20
2023-02-07T22:18:29.593Z,-0.20
2023-02-07T22:20:56.644Z,-0.20
2023-02-07T22:23:23.540Z,0.10
2023-02-07T22:25:52.078Z,0.10
2023-02-07T22:28:18.977Z,0.30
2023-02-07T22:30:46.443Z,-0.10
2023-02-07T22:33:13.596Z,-0.10
2023-02-07T22:35:41.851Z,-0.10
2023-02-07T22:38:09.082Z,-0.30
2023-02-07T22:40:36.152Z,-0.30
2023-02-07T22:43:03.431Z,-0.20
2023-02-07T22:45:30.318Z,0.00
2023-02-07T22:47:57.330Z,0.00
2023-02-07T22:50:24.224Z,-0.10
2023-02-07T22:52:51.256Z,0.10
2023-02-07T22:55:18.147Z,0.00
2023-02-07T22:57:49.101Z,-0.10
2023-02-07T23:00:16.433Z,0.00
2023-02-07T23:02:43.767Z,-0.40
2023-02-07T23:05:10.799Z,-0.30
2023-02-07T23:07:38.076Z,-0.10
2023-02-07T23:10:06.016Z,0.00
2023-02-07T23:12:33.107Z,0.10
2023-02-07T23:14:59.975Z,0.00
2023-02-07T23:17:27.533Z,-0.20
2023-02-07T23:19:54.544Z,-0.10
2023-02-07T23:22:21.727Z,-0.40
2023-02-07T23:24:49.144Z,-0.30
2023-02-07T23:27:16.562Z,-0.30
2023-02-07T23:29:43.486Z,-0.30
2023-02-07T23:32:10.267Z,-0.10
2023-02-07T23:34:37.171Z,-0.20
2023-02-07T23:37:04.040Z,-0.30
2023-02-07T23:39:31.191Z,-0.40
2023-02-07T23:41:58.423Z,-0.30
2023-02-07T23:44:25.497Z,-0.40
2023-02-07T23:46:52.293Z,-0.50
2023-02-07T23:49:19.020Z,-0.30
2023-02-07T23:51:45.854Z,-0.40
2023-02-07T23:54:12.945Z,-0.40
2023-02-07T23:56:39.802Z,-0.30
2023-02-07T23:59:06.782Z,-0.40
